Time;durP1;ratioP1;P1;durP2;ratioP2;P2;SDS_P1;SDS_P2;PMS_P1;PMS_P2;Temp;Humidity;BMP_temperature;BMP_pressure;BME280_temperature;BME280_humidity;BME280_pressure;Samples;Min_cycle;Max_cycle;Signal;HPM_P1;HPM_P2
2023/10/02 00:00:39;;;;;;;21.80;12.50;;;;;;;12.24;84.95;99568.30;225484;1282;138921;-72
2023/10/02 00:05:50;;;;;;;20.50;13.90;;;;;;;12.25;85.10;99570.31;225336;1282;138740;-72
2023/10/02 00:10:52;;;;;;;20.60;12.40;;;;;;;12.28;85.18;99568.73;225334;1281;139513;-72
2023/10/02 00:15:54;;;;;;;19.50;12.80;;;;;;;12.32;85.18;99562.99;225510;1279;138870;-72
2023/10/02 00:21:17;;;;;;;21.40;12.90;;;;;;;12.34;85.23;99562.89;225573;1281;22565;-72
2023/10/02 00:26:17;;;;;;;18.30;12.70;;;;;;;12.36;85.33;99554.70;225513;1281;138399;-72
2023/10/02 00:31:35;;;;;;;21.70;12.40;;;;;;;12.38;85.37;99558.92;225335;1282;139567;-73
2023/10/02 00:36:39;;;;;;;17.30;11.70;;;;;;;12.41;85.37;99559.10;225329;1281;139219;-72
2023/10/02 00:41:41;;;;;;;17.00;11.90;;;;;;;12.44;85.44;99557.69;225355;1282;139394;-72
2023/10/02 00:46:43;;;;;;;19.00;12.00;;;;;;;12.46;85.48;99556.16;225508;1279;138788;-71
2023/10/02 00:51:46;;;;;;;21.30;12.80;;;;;;;12.47;85.52;99554.86;225574;1282;23013;-72
2023/10/02 00:56:51;;;;;;;18.80;12.40;;;;;;;12.50;85.53;99555.76;225475;1282;138207;-72
2023/10/02 01:01:53;;;;;;;18.90;12.60;;;;;;;12.54;85.54;99560.36;225481;1279;138604;-72
2023/10/02 01:12:10;;;;;;;22.40;13.20;;;;;;;12.58;85.56;99553.50;225441;1281;138833;-72
2023/10/02 01:17:17;;;;;;;21.40;12.50;;;;;;;12.62;85.78;99553.02;225476;1282;139082;-72
2023/10/02 01:22:27;;;;;;;19.20;12.60;;;;;;;12.65;85.79;99552.07;225514;1278;138976;-72
2023/10/02 01:27:40;;;;;;;18.20;12.20;;;;;;;12.69;85.67;99552.74;225599;1281;22554;-72
2023/10/02 01:33:06;;;;;;;15.80;11.60;;;;;;;12.74;85.71;99553.00;225501;1279;139438;-72
2023/10/02 01:38:12;;;;;;;19.70;12.00;;;;;;;12.80;85.74;99548.41;225469;1280;138590;-73
2023/10/02 01:43:19;;;;;;;18.30;11.60;;;;;;;12.85;85.86;99544.29;225353;1280;140068;-72
2023/10/02 01:48:44;;;;;;;18.50;11.30;;;;;;;12.91;85.83;99541.78;225486;1281;139186;-72
2023/10/02 01:53:56;;;;;;;15.20;10.50;;;;;;;12.97;85.73;99548.88;225386;1281;139117;-72
2023/10/02 01:59:14;;;;;;;17.60;10.10;;;;;;;13.01;85.70;99554.24;225485;1282;139852;-72
2023/10/02 02:04:17;;;;;;;16.20;10.70;;;;;;;13.04;85.68;99554.30;225498;1282;139771;-72
2023/10/02 02:09:29;;;;;;;16.00;9.90;;;;;;;13.09;85.63;99550.91;225621;1282;22548;-72
2023/10/02 02:14:33;;;;;;;15.80;9.60;;;;;;;13.12;85.53;99553.02;225485;1281;137986;-72
2023/10/02 02:19:37;;;;;;;15.00;9.90;;;;;;;13.09;85.33;99550.02;225467;1278;138600;-72
2023/10/02 02:24:39;;;;;;;17.00;10.10;;;;;;;13.05;85.24;99541.69;225323;1282;138642;-72
2023/10/02 02:29:41;;;;;;;15.10;9.90;;;;;;;13.02;85.35;99542.92;225463;1282;138739;-73
2023/10/02 02:34:47;;;;;;;14.70;10.00;;;;;;;13.00;85.35;99552.28;225309;1282;138682;-72
2023/10/02 02:39:49;;;;;;;14.90;10.40;;;;;;;12.99;85.37;99558.96;225556;1281;22556;-74
2023/10/02 02:44:51;;;;;;;15.10;10.20;;;;;;;13.01;85.26;99572.34;225370;1278;138233;-72
2023/10/02 02:50:06;;;;;;;16.60;10.70;;;;;;;13.02;85.32;99573.29;225360;1282;138126;-72
2023/10/02 02:55:15;;;;;;;15.90;10.70;;;;;;;13.03;85.40;99570.86;225476;1279;138955;-72
2023/10/02 03:00:31;;;;;;;14.90;11.00;;;;;;;13.04;85.46;99566.50;225491;1282;139114;-73
2023/10/02 03:05:41;;;;;;;18.90;11.00;;;;;;;13.06;85.43;99563.45;225379;1282;139115;-73
2023/10/02 03:10:46;;;;;;;15.30;10.60;;;;;;;13.08;85.48;99565.14;225486;1278;139247;-73
2023/10/02 03:15:49;;;;;;;15.10;10.40;;;;;;;13.10;85.55;99563.23;225605;1281;24224;-72
2023/10/02 03:20:54;;;;;;;15.20;10.10;;;;;;;13.08;85.43;99562.82;225343;1282;139239;-73
2023/10/02 03:25:56;;;;;;;16.80;10.00;;;;;;;13.09;85.69;99555.64;225479;1281;139350;-72
2023/10/02 03:31:00;;;;;;;14.60;9.90;;;;;;;13.10;85.56;99553.78;225445;1280;139075;-73
2023/10/02 03:36:09;;;;;;;15.70;10.20;;;;;;;13.11;85.72;99548.36;225543;1282;139340;-72
2023/10/02 03:41:13;;;;;;;15.70;9.50;;;;;;;13.11;85.63;99549.06;225529;1282;138943;-72
2023/10/02 03:46:35;;;;;;;11.40;8.80;;;;;;;13.12;85.66;99547.96;225372;1278;138772;-72
2023/10/02 03:51:40;;;;;;;15.70;9.10;;;;;;;13.11;85.71;99551.79;225620;1281;22543;-72
2023/10/02 03:56:48;;;;;;;17.10;9.20;;;;;;;13.10;85.73;99555.77;225399;1282;139609;-71
2023/10/02 04:01:50;;;;;;;13.90;9.20;;;;;;;13.10;85.69;99556.97;225455;1282;138503;-72
2023/10/02 04:06:53;;;;;;;14.80;9.30;;;;;;;13.11;85.77;99567.67;225508;1282;140065;-72
2023/10/02 04:11:56;;;;;;;14.30;9.40;;;;;;;13.11;85.89;99567.43;225518;1278;138895;-72
2023/10/02 04:17:09;;;;;;;13.10;9.00;;;;;;;13.14;85.80;99572.43;225531;1282;139127;-72
2023/10/02 04:22:22;;;;;;;14.20;8.70;;;;;;;13.19;85.98;99572.92;225518;1282;138666;-72
2023/10/02 04:27:27;;;;;;;11.10;7.50;;;;;;;13.22;85.74;99574.12;225632;1282;22543;-72
2023/10/02 04:32:32;;;;;;;12.40;8.30;;;;;;;13.23;85.75;99576.66;225494;1282;138383;-72
2023/10/02 04:37:36;;;;;;;10.90;8.00;;;;;;;13.23;85.47;99575.97;225378;1282;138709;-72
2023/10/02 04:48:00;;;;;;;13.30;7.80;;;;;;;13.28;85.87;99581.48;225522;1282;138740;-72
2023/10/02 04:58:19;;;;;;;11.90;7.70;;;;;;;13.38;85.67;99596.41;225522;1280;138855;-72
2023/10/02 05:03:25;;;;;;;11.40;7.60;;;;;;;13.42;85.58;99597.70;225527;1282;22559;-72
2023/10/02 05:08:34;;;;;;;12.70;7.20;;;;;;;13.47;85.72;99600.79;225520;1281;138266;-72
2023/10/02 05:18:57;;;;;;;10.80;7.20;;;;;;;13.53;85.47;99604.80;225578;1280;138780;-72
2023/10/02 05:24:02;;;;;;;12.80;8.50;;;;;;;13.56;85.39;99607.79;225539;1280;139387;-72
2023/10/02 05:29:09;;;;;;;12.70;7.10;;;;;;;13.64;85.65;99603.55;225490;1280;138738;-72
2023/10/02 05:34:22;;;;;;;12.90;7.60;;;;;;;13.73;85.63;99605.41;225533;1277;138796;-72
2023/10/02 05:39:28;;;;;;;9.90;7.30;;;;;;;13.85;85.62;99616.35;225602;1265;22552;-72
2023/10/02 05:44:31;;;;;;;12.20;7.90;;;;;;;13.96;85.31;99606.22;225325;1261;138852;-73
2023/10/02 05:49:47;;;;;;;12.40;7.50;;;;;;;14.10;85.22;99613.34;225105;1260;138425;-73
2023/10/02 05:54:55;;;;;;;12.90;7.30;;;;;;;14.24;85.34;99613.55;225293;1270;138874;-73
2023/10/02 06:00:00;;;;;;;14.10;9.10;;;;;;;14.34;85.10;99611.43;225157;1267;138990;-73
2023/10/02 06:05:11;;;;;;;15.50;9.50;;;;;;;14.41;84.67;99609.66;224978;1267;138852;-72
2023/10/02 06:10:27;;;;;;;16.30;10.50;;;;;;;14.49;84.60;99619.15;224594;1266;138714;-73
2023/10/02 06:15:51;;;;;;;17.00;8.70;;;;;;;14.55;84.30;99625.38;224970;1261;23030;-72
2023/10/02 06:21:00;;;;;;;13.10;8.90;;;;;;;14.63;84.43;99630.15;225417;1267;23216;-73
2023/10/02 06:26:09;;;;;;;;;;;;;;;14.72;84.13;99637.86;224829;1261;138841;-73
2023/10/02 06:31:15;;;;;;;12.50;8.40;;;;;;;14.78;84.02;99643.28;224561;1270;125903;-73
2023/10/02 06:36:17;;;;;;;12.20;8.20;;;;;;;14.87;83.98;99638.47;224798;1270;138705;-73
2023/10/02 06:41:19;;;;;;;12.40;7.80;;;;;;;15.02;84.03;99640.41;224947;1262;138861;-74
2023/10/02 06:46:22;;;;;;;14.10;7.90;;;;;;;15.12;83.55;99641.58;224547;1258;138947;-75
2023/10/02 06:51:25;;;;;;;10.70;8.20;;;;;;;15.19;83.42;99647.63;224731;1277;22953;-73
2023/10/02 06:56:30;;;;;;;12.80;8.40;;;;;;;15.23;83.32;99645.52;224524;1266;139535;-73
2023/10/02 07:01:32;;;;;;;13.00;8.90;;;;;;;15.32;83.19;99644.70;224737;1264;139304;-74
2023/10/02 07:06:38;;;;;;;14.80;8.80;;;;;;;15.41;82.92;99651.55;224818;1267;138735;-73
2023/10/02 07:11:45;;;;;;;13.30;8.20;;;;;;;15.51;82.82;99655.95;224894;1274;138858;-73
2023/10/02 07:16:47;;;;;;;11.90;8.30;;;;;;;15.62;82.56;99663.11;225017;1264;138736;-79
2023/10/02 07:21:51;;;;;;;11.20;8.00;;;;;;;15.74;82.75;99657.41;224768;1272;22577;-74
2023/10/02 07:26:53;;;;;;;13.30;7.10;;;;;;;15.84;82.25;99658.03;224912;1275;22580;-74
2023/10/02 07:31:56;;;;;;;10.90;7.50;;;;;;;15.97;82.07;99662.30;224809;1275;139334;-73
2023/10/02 07:36:59;;;;;;;10.90;6.90;;;;;;;16.09;81.75;99664.37;224877;1273;140501;-74
2023/10/02 07:42:04;;;;;;;12.80;6.50;;;;;;;16.19;81.51;99666.11;225017;1260;138622;-72
2023/10/02 07:47:10;;;;;;;12.70;6.10;;;;;;;16.36;81.38;99663.19;225324;1271;138620;-73
2023/10/02 07:52:26;;;;;;;9.80;6.60;;;;;;;16.50;80.99;99656.46;225045;1270;138802;-73
2023/10/02 07:57:33;;;;;;;12.90;6.30;;;;;;;16.66;80.74;99662.08;225175;1275;22569;-73
2023/10/02 08:02:35;;;;;;;9.50;5.70;;;;;;;16.84;80.51;99665.81;224939;1281;138532;-73
2023/10/02 08:07:37;;;;;;;9.80;5.90;;;;;;;16.99;80.26;99659.15;224917;1267;138523;-73
2023/10/02 08:12:57;;;;;;;11.30;7.30;;;;;;;17.15;80.13;99655.37;224887;1264;139320;-76
2023/10/02 08:23:21;;;;;;;8.10;5.20;;;;;;;17.40;79.29;99653.58;224887;1269;138542;-76
2023/10/02 08:28:24;;;;;;;10.10;5.80;;;;;;;17.53;79.28;99655.73;225026;1281;138626;-74
2023/10/02 08:33:26;;;;;;;9.40;6.00;;;;;;;17.73;79.29;99653.77;224940;1275;22547;-72
2023/10/02 08:38:34;;;;;;;9.40;6.10;;;;;;;17.98;79.16;99651.18;224937;1269;138315;-73
2023/10/02 08:43:43;;;;;;;8.50;5.60;;;;;;;18.21;78.70;99648.77;224825;1276;138587;-72
2023/10/02 08:48:56;;;;;;;9.10;5.50;;;;;;;18.44;78.42;99643.30;225064;1260;138638;-73
2023/10/02 08:54:00;;;;;;;8.40;4.80;;;;;;;18.71;78.31;99641.92;225097;1260;139353;-72
2023/10/02 08:59:18;;;;;;;9.50;5.00;;;;;;;18.94;77.82;99639.97;224940;1275;139089;-72
2023/10/02 09:14:40;;;;;;;6.80;4.90;;;;;;;19.37;75.96;99631.02;225031;1263;139111;-74
2023/10/02 09:19:53;;;;;;;8.80;4.40;;;;;;;19.46;75.35;99631.70;224931;1275;138508;-74
2023/10/02 09:25:15;;;;;;;7.90;4.40;;;;;;;19.60;75.38;99632.88;225034;1270;138600;-74
2023/10/02 09:30:21;;;;;;;11.40;8.00;;;;;;;19.80;75.13;99630.38;224759;1270;138808;-73
2023/10/02 09:35:40;;;;;;;5.60;4.10;;;;;;;20.04;74.61;99631.50;225388;1280;138871;-73
2023/10/02 09:41:15;;;;;;;4.60;3.50;;;;;;;20.21;73.69;99627.65;225013;1263;138590;-74
2023/10/02 09:46:22;;;;;;;6.80;3.70;;;;;;;20.30;73.24;99622.69;224926;1280;138775;-78
2023/10/02 09:51:29;;;;;;;7.30;3.90;;;;;;;20.40;72.72;99626.98;224904;1277;22539;-73
2023/10/02 09:57:04;;;;;;;6.70;3.60;;;;;;;20.43;72.10;99623.84;224957;1259;138455;-73
2023/10/02 10:02:19;;;;;;;10.30;4.80;;;;;;;20.56;72.01;99622.34;224874;1264;138329;-75
2023/10/02 10:07:38;;;;;;;7.00;4.00;;;;;;;20.69;71.58;99617.21;224757;1261;139273;-73
2023/10/02 10:12:54;;;;;;;;;;;;;;;20.82;71.33;99613.63;224654;1259;137860;-75
2023/10/02 10:17:58;;;;;;;9.20;4.00;;;;;;;20.96;70.31;99611.30;224657;1280;124802;-76
2023/10/02 10:23:30;;;;;;;7.40;3.60;;;;;;;21.03;69.64;99608.95;224631;1264;138960;-76
2023/10/02 10:28:50;;;;;;;6.30;3.50;;;;;;;21.11;68.92;99603.69;224714;1277;139218;-75
2023/10/02 10:33:56;;;;;;;8.30;4.10;;;;;;;21.25;69.06;99601.41;224725;1260;137863;-76
2023/10/02 10:39:30;;;;;;;9.20;7.30;;;;;;;21.37;68.02;99599.44;224988;1282;24403;-75
2023/10/02 10:44:23;;;;;;;5.20;4.20;;;;;;;21.44;67.71;99598.94;224935;1266;138072;-75
2023/10/02 10:49:27;;;;;;;6.10;4.20;;;;;;;21.51;67.06;99601.48;224883;1275;137774;-76
2023/10/02 10:54:37;;;;;;;6.30;4.00;;;;;;;21.62;67.56;99597.77;224869;1277;137208;-77
2023/10/02 11:00:25;;;;;;;27.20;24.40;;;;;;;21.80;66.96;99594.20;224852;1275;137810;-76
2023/10/02 11:05:33;;;;;;;12.40;5.70;;;;;;;21.89;66.36;99585.27;224877;1277;138279;-76
2023/10/02 11:10:36;;;;;;;6.80;4.30;;;;;;;21.92;65.65;99574.35;224753;1268;139045;-75
2023/10/02 11:15:46;;;;;;;6.10;4.00;;;;;;;22.06;66.17;99570.46;224892;1268;24242;-76
2023/10/02 11:20:59;;;;;;;8.10;4.20;;;;;;;22.18;64.84;99559.73;224844;1277;137658;-75
2023/10/02 11:26:01;;;;;;;5.70;4.20;;;;;;;22.19;64.70;99557.55;225004;1261;138860;-76
2023/10/02 11:31:12;;;;;;;5.40;4.00;;;;;;;22.48;64.78;99550.35;225010;1267;138029;-76
2023/10/02 11:36:14;;;;;;;4.80;3.80;;;;;;;22.90;63.80;99550.45;225041;1277;137976;-77
2023/10/02 11:41:17;;;;;;;5.00;3.20;;;;;;;23.32;63.68;99549.52;224931;1280;137781;-76
2023/10/02 11:46:20;;;;;;;6.90;3.10;;;;;;;23.49;62.50;99552.58;225122;1278;138117;-75
2023/10/02 11:51:28;;;;;;;3.70;3.10;;;;;;;23.54;63.07;99546.88;225217;1276;25325;-75
2023/10/02 11:56:30;;;;;;;4.80;3.10;;;;;;;23.53;62.43;99536.40;224942;1278;137524;-74
2023/10/02 12:01:33;;;;;;;4.10;3.20;;;;;;;23.32;62.02;99530.36;224952;1275;137757;-75
2023/10/02 12:06:38;;;;;;;4.40;3.30;;;;;;;23.05;62.01;99531.98;224978;1278;138000;-75
2023/10/02 12:11:40;;;;;;;4.80;3.50;;;;;;;22.72;62.41;99523.14;224695;1268;137752;-76
2023/10/02 12:16:43;;;;;;;4.70;3.10;;;;;;;22.58;62.83;99510.69;224764;1270;137946;-73
2023/10/02 12:21:47;;;;;;;4.60;3.30;;;;;;;22.39;62.88;99507.99;224720;1264;23601;-72
2023/10/02 12:27:12;;;;;;;5.10;3.10;;;;;;;22.32;63.55;99505.67;224750;1261;24388;-72
2023/10/02 12:32:16;;;;;;;5.50;3.60;;;;;;;22.48;64.15;99500.31;224531;1265;138060;-73
2023/10/02 12:37:18;;;;;;;4.10;2.80;;;;;;;22.52;63.31;99500.21;224681;1280;137902;-74
2023/10/02 12:42:20;;;;;;;3.60;3.00;;;;;;;22.39;62.98;99498.58;224815;1271;138480;-74
2023/10/02 12:47:22;;;;;;;3.10;2.10;;;;;;;22.32;63.19;99494.91;224752;1277;138007;-74
2023/10/02 12:52:25;;;;;;;4.40;2.80;;;;;;;22.31;63.53;99488.77;224714;1268;137943;-73
2023/10/02 12:57:26;;;;;;;3.00;2.10;;;;;;;22.29;62.96;99489.27;224881;1280;22548;-72
2023/10/02 13:02:28;;;;;;;3.00;2.40;;;;;;;22.31;63.71;99483.84;224783;1275;137627;-74
2023/10/02 13:07:31;;;;;;;2.60;1.90;;;;;;;22.34;63.53;99479.11;224927;1264;138786;-72
2023/10/02 13:12:34;;;;;;;3.30;2.30;;;;;;;22.35;63.60;99475.20;224984;1260;137920;-74
2023/10/02 13:17:36;;;;;;;2.30;2.00;;;;;;;22.39;63.76;99465.30;225036;1280;138091;-72
2023/10/02 13:22:39;;;;;;;3.10;2.50;;;;;;;22.46;63.96;99460.10;225138;1267;137866;-72
2023/10/02 13:27:41;;;;;;;2.90;2.00;;;;;;;22.52;64.02;99449.10;225242;1275;22678;-71
2023/10/02 13:32:43;;;;;;;4.00;2.10;;;;;;;22.55;63.75;99442.30;224993;1262;137563;-72
2023/10/02 13:37:46;;;;;;;2.50;2.30;;;;;;;22.53;63.30;99446.26;225007;1275;137851;-73
2023/10/02 13:42:49;;;;;;;3.50;2.10;;;;;;;22.47;62.85;99440.89;224681;1281;246129;-73
2023/10/02 13:47:54;;;;;;;2.10;1.80;;;;;;;22.44;63.47;99429.59;225015;1276;137989;-73
2023/10/02 13:52:59;;;;;;;2.70;1.90;;;;;;;22.49;63.76;99425.08;224925;1261;137923;-72
2023/10/02 13:58:01;;;;;;;8.40;7.50;;;;;;;22.46;63.32;99423.52;224925;1279;137897;-73
2023/10/02 14:03:03;;;;;;;4.00;2.50;;;;;;;22.38;63.22;99416.33;225068;1281;22647;-73
2023/10/02 14:08:05;;;;;;;3.10;2.20;;;;;;;22.34;63.23;99415.56;224930;1281;137437;-72
2023/10/02 14:13:08;;;;;;;5.80;2.10;;;;;;;22.25;63.08;99413.83;224888;1282;138828;-72
2023/10/02 14:18:11;;;;;;;2.60;1.90;;;;;;;22.18;63.76;99404.73;224678;1273;137763;-73
2023/10/02 14:23:13;;;;;;;2.30;1.90;;;;;;;22.11;63.53;99403.14;224558;1282;137786;-73
2023/10/02 14:28:16;;;;;;;3.20;2.00;;;;;;;22.02;63.83;99399.29;224919;1278;137907;-72
2023/10/02 14:33:18;;;;;;;3.10;2.00;;;;;;;21.99;64.30;99401.04;225355;1279;22547;-72
2023/10/02 14:38:22;;;;;;;3.10;2.40;;;;;;;21.97;64.35;99394.86;225367;1282;137667;-73
2023/10/02 14:43:24;;;;;;;3.90;2.30;;;;;;;21.93;64.44;99391.77;225531;1274;137734;-73
2023/10/02 14:48:28;;;;;;;4.50;2.90;;;;;;;21.88;64.34;99388.86;225343;1282;137972;-74
2023/10/02 14:53:47;;;;;;;3.20;2.60;;;;;;;21.80;64.21;99387.09;225327;1282;137716;-73
2023/10/02 14:58:50;;;;;;;3.20;2.40;;;;;;;21.72;64.59;99386.11;225321;1282;137824;-73
2023/10/02 15:03:52;;;;;;;3.20;2.40;;;;;;;21.68;65.14;99381.25;225516;1279;22596;-73
2023/10/02 15:09:02;;;;;;;3.80;2.50;;;;;;;21.65;65.35;99382.17;225418;1280;137336;-73
2023/10/02 15:14:08;;;;;;;3.60;2.50;;;;;;;21.58;65.43;99378.13;225388;1282;137716;-73
2023/10/02 15:19:12;;;;;;;3.90;2.50;;;;;;;21.47;65.72;99381.19;225438;1279;138803;-73
2023/10/02 15:24:14;;;;;;;5.30;2.60;;;;;;;21.38;66.03;99384.22;225420;1280;137790;-72
2023/10/02 15:29:17;;;;;;;5.20;2.70;;;;;;;21.28;66.15;99382.48;225401;1281;138111;-73
2023/10/02 15:34:19;;;;;;;4.20;2.70;;;;;;;21.17;66.41;99379.70;225413;1280;138742;-73
2023/10/02 15:39:22;;;;;;;3.40;2.70;;;;;;;21.04;66.67;99378.91;225570;1281;22598;-73
2023/10/02 15:44:24;;;;;;;4.70;3.00;;;;;;;20.89;66.98;99377.42;225452;1282;138181;-71
2023/10/02 15:49:26;;;;;;;4.90;3.10;;;;;;;20.74;67.40;99380.64;225461;1279;138928;-72
2023/10/02 15:54:29;;;;;;;4.80;3.00;;;;;;;20.60;67.54;99382.96;225418;1281;138822;-73
2023/10/02 15:59:31;;;;;;;7.00;3.30;;;;;;;20.45;67.93;99385.48;225448;1275;138773;-73
2023/10/02 16:04:33;;;;;;;4.70;3.10;;;;;;;20.27;68.40;99386.05;225457;1278;139418;-74
2023/10/02 16:09:36;;;;;;;5.90;3.60;;;;;;;20.09;68.60;99386.89;225518;1280;22768;-74
2023/10/02 16:14:38;;;;;;;5.60;3.70;;;;;;;19.91;68.90;99386.80;225269;1282;138246;-73
2023/10/02 16:19:40;;;;;;;6.00;3.90;;;;;;;19.74;69.21;99387.27;225338;1281;138680;-72
2023/10/02 16:24:42;;;;;;;6.70;5.00;;;;;;;19.58;69.52;99385.71;225447;1281;138675;-73
2023/10/02 16:29:44;;;;;;;8.90;5.50;;;;;;;19.42;69.65;99391.18;225319;1274;138531;-73
2023/10/02 16:34:46;;;;;;;6.60;4.60;;;;;;;19.28;70.05;99393.76;225260;1281;138413;-72
2023/10/02 16:39:48;;;;;;;7.30;4.40;;;;;;;19.12;69.90;99389.87;225345;1280;25322;-73
2023/10/02 16:44:50;;;;;;;7.80;4.20;;;;;;;18.96;69.93;99385.98;225468;1281;138520;-73
2023/10/02 16:49:52;;;;;;;6.90;4.20;;;;;;;18.82;70.02;99391.52;225450;1280;138468;-73
2023/10/02 16:54:53;;;;;;;8.80;4.30;;;;;;;18.68;70.01;99389.70;225345;1281;138505;-73
2023/10/02 16:59:57;;;;;;;10.00;4.30;;;;;;;18.54;69.96;99385.76;225422;1281;138605;-72
2023/10/02 17:05:00;;;;;;;7.30;4.20;;;;;;;18.42;69.84;99386.46;225496;1278;138649;-73
2023/10/02 17:10:02;;;;;;;9.20;5.20;;;;;;;18.30;70.08;99392.53;225453;1281;138628;-73
2023/10/02 17:15:05;;;;;;;11.80;6.20;;;;;;;18.16;70.32;99395.73;225558;1279;22539;-73
2023/10/02 17:20:09;;;;;;;10.50;6.30;;;;;;;18.03;70.58;99391.46;225429;1279;138595;-73
2023/10/02 17:25:14;;;;;;;11.50;5.90;;;;;;;17.87;70.77;99390.13;225333;1282;139026;-74
2023/10/02 17:30:20;;;;;;;8.00;5.50;;;;;;;17.73;71.33;99389.73;225301;1273;138807;-73
2023/10/02 17:35:23;;;;;;;10.00;5.80;;;;;;;17.57;71.76;99393.90;225471;1279;138533;-73
2023/10/02 17:40:25;;;;;;;10.90;6.50;;;;;;;17.40;71.92;99390.54;225471;1282;138551;-72
2023/10/02 17:45:27;;;;;;;12.60;8.00;;;;;;;17.24;72.22;99392.33;225594;1281;22539;-73
2023/10/02 17:50:29;;;;;;;13.80;9.20;;;;;;;17.11;72.20;99390.91;225469;1278;139072;-73
2023/10/02 17:55:31;;;;;;;21.30;15.70;;;;;;;16.98;72.35;99391.63;225475;1282;139922;-73
2023/10/02 18:00:35;;;;;;;19.50;14.90;;;;;;;16.85;72.49;99389.33;225462;1273;138943;-73
2023/10/02 18:05:37;;;;;;;20.40;13.20;;;;;;;16.75;72.53;99393.77;225324;1282;139178;-73
2023/10/02 18:10:39;;;;;;;19.20;12.70;;;;;;;16.66;72.75;99397.98;225488;1282;140119;-74
2023/10/02 18:15:45;;;;;;;14.80;10.60;;;;;;;16.54;73.16;99395.80;225446;1280;22542;-73
2023/10/02 18:20:47;;;;;;;13.20;8.80;;;;;;;16.42;73.29;99397.11;225498;1278;138655;-73
2023/10/02 18:25:51;;;;;;;12.60;7.80;;;;;;;16.31;73.38;99400.39;225342;1282;138689;-73
2023/10/02 18:30:54;;;;;;;13.90;7.80;;;;;;;16.20;73.76;99400.50;225422;1282;138514;-72
2023/10/02 18:36:02;;;;;;;10.20;6.90;;;;;;;16.08;74.01;99396.26;225343;1282;138582;-74
2023/10/02 18:41:10;;;;;;;11.70;6.80;;;;;;;15.98;74.50;99397.80;225458;1279;138662;-72
2023/10/02 18:46:12;;;;;;;12.20;7.40;;;;;;;15.87;74.43;99392.00;225361;1282;138150;-73
2023/10/02 18:51:18;;;;;;;13.40;7.60;;;;;;;15.77;74.33;99391.02;225431;1281;22550;-73
2023/10/02 18:56:20;;;;;;;12.50;7.20;;;;;;;15.68;74.69;99398.61;225297;1280;138423;-73
2023/10/02 19:01:23;;;;;;;13.00;8.10;;;;;;;15.59;74.75;99397.99;225342;1282;138594;-74
2023/10/02 19:06:25;;;;;;;12.20;7.90;;;;;;;15.49;75.06;99407.02;225308;1276;138771;-73
2023/10/02 19:11:27;;;;;;;13.20;9.00;;;;;;;15.40;75.21;99398.33;225294;1281;138809;-72
2023/10/02 19:16:30;;;;;;;13.60;9.60;;;;;;;15.31;75.60;99398.64;225308;1282;138775;-71
2023/10/02 19:21:33;;;;;;;13.00;9.50;;;;;;;15.22;75.57;99399.52;225544;1265;22563;-72
2023/10/02 19:26:36;;;;;;;15.40;9.80;;;;;;;15.13;75.66;99395.91;225319;1281;138361;-73
2023/10/02 19:31:38;;;;;;;14.20;9.40;;;;;;;15.05;76.08;99389.66;225484;1282;138573;-73
2023/10/02 19:36:40;;;;;;;13.10;9.10;;;;;;;14.97;76.32;99387.32;225387;1281;138711;-72
2023/10/02 19:41:43;;;;;;;15.70;9.10;;;;;;;14.91;76.24;99384.06;225252;1282;139362;-73
2023/10/02 19:46:47;;;;;;;14.60;9.00;;;;;;;14.87;76.60;99387.28;225533;1278;138729;-73
2023/10/02 19:51:50;;;;;;;12.70;8.70;;;;;;;14.81;76.56;99381.81;225393;1282;22694;-74
2023/10/02 19:56:52;;;;;;;11.60;8.50;;;;;;;14.76;76.67;99377.89;225280;1282;138241;-73
2023/10/02 20:01:55;;;;;;;13.00;8.20;;;;;;;14.71;76.87;99376.05;225288;1281;138596;-72
2023/10/02 20:06:58;;;;;;;12.60;8.40;;;;;;;14.66;76.88;99379.88;225359;1282;138874;-73
2023/10/02 20:12:00;;;;;;;14.40;8.00;;;;;;;14.61;77.11;99372.44;225319;1282;138613;-74
2023/10/02 20:17:03;;;;;;;13.30;9.10;;;;;;;14.55;77.29;99369.09;225451;1276;138653;-72
2023/10/02 20:22:05;;;;;;;14.10;8.50;;;;;;;14.50;77.24;99372.04;225493;1282;138593;-72
2023/10/02 20:27:07;;;;;;;13.00;9.00;;;;;;;14.45;77.42;99375.15;225389;1281;22545;-73
2023/10/02 20:32:09;;;;;;;14.80;8.70;;;;;;;14.40;77.54;99374.63;225340;1281;138563;-72
2023/10/02 20:37:11;;;;;;;14.90;9.10;;;;;;;14.35;77.63;99377.41;225418;1276;138745;-73
2023/10/02 20:42:14;;;;;;;14.50;9.80;;;;;;;14.29;77.88;99372.06;225444;1281;138593;-73
2023/10/02 20:47:16;;;;;;;15.60;10.20;;;;;;;14.24;78.03;99370.45;225249;1282;139054;-73
2023/10/02 20:52:18;;;;;;;17.10;12.10;;;;;;;14.20;78.28;99366.21;225440;1281;140387;-73
2023/10/02 20:57:21;;;;;;;17.80;10.70;;;;;;;14.15;78.41;99362.71;225544;1277;23368;-72
2023/10/02 21:02:23;;;;;;;14.60;10.70;;;;;;;14.10;78.64;99360.80;225448;1282;138559;-71
2023/10/02 21:07:25;;;;;;;16.30;11.00;;;;;;;14.06;78.96;99362.59;225307;1282;138641;-73
2023/10/02 21:12:28;;;;;;;16.10;10.70;;;;;;;14.02;79.08;99359.09;225340;1282;138756;-71
2023/10/02 21:17:31;;;;;;;18.50;11.40;;;;;;;13.97;79.12;99355.45;225300;1282;138946;-73
2023/10/02 21:22:33;;;;;;;16.40;11.00;;;;;;;13.93;79.51;99349.15;225447;1279;138821;-72
2023/10/02 21:27:38;;;;;;;13.90;10.20;;;;;;;13.89;79.61;99345.56;225446;1282;25920;-73
2023/10/02 21:32:41;;;;;;;16.10;10.90;;;;;;;13.85;79.88;99340.63;225299;1282;138610;-73
2023/10/02 21:37:44;;;;;;;15.90;10.40;;;;;;;13.81;80.04;99335.98;225323;1282;138598;-73
2023/10/02 21:42:46;;;;;;;13.70;10.20;;;;;;;13.79;80.23;99332.06;225323;1279;138856;-72
2023/10/02 21:47:48;;;;;;;15.40;10.10;;;;;;;13.76;80.35;99329.84;225285;1281;138925;-71
2023/10/02 21:52:50;;;;;;;14.80;9.30;;;;;;;13.75;80.42;99328.23;225384;1280;138701;-72
2023/10/02 21:57:52;;;;;;;13.00;9.20;;;;;;;13.74;80.45;99324.10;225377;1280;22586;-72
2023/10/02 22:02:54;;;;;;;14.00;9.00;;;;;;;13.73;80.62;99317.14;225344;1281;138604;-72
2023/10/02 22:07:57;;;;;;;16.70;9.60;;;;;;;13.73;80.88;99313.92;225437;1281;138649;-72
2023/10/02 22:12:59;;;;;;;12.90;8.60;;;;;;;13.74;80.93;99309.06;225277;1282;138794;-73
2023/10/02 22:18:03;;;;;;;14.00;9.20;;;;;;;13.74;80.96;99310.66;225449;1281;138882;-72
2023/10/02 22:23:08;;;;;;;13.50;8.20;;;;;;;13.74;81.18;99312.29;225341;1282;138713;-72
2023/10/02 22:28:12;;;;;;;12.60;7.60;;;;;;;13.74;81.41;99312.34;225326;1280;138663;-72
2023/10/02 22:33:14;;;;;;;12.30;7.80;;;;;;;13.78;81.45;99308.60;225596;1282;22566;-73
2023/10/02 22:38:16;;;;;;;10.00;8.10;;;;;;;13.79;81.61;99306.80;225459;1279;138250;-72
2023/10/02 22:43:18;;;;;;;11.50;8.20;;;;;;;13.80;81.73;99307.58;225406;1263;138578;-72
2023/10/02 22:48:20;;;;;;;12.30;8.50;;;;;;;13.78;81.54;99304.27;225310;1282;138711;-72
2023/10/02 22:53:24;;;;;;;12.70;8.60;;;;;;;13.74;81.56;99302.61;225331;1282;138903;-73
2023/10/02 22:58:26;;;;;;;12.80;8.40;;;;;;;13.70;81.73;99298.45;225458;1282;138747;-71
2023/10/02 23:03:28;;;;;;;12.60;7.70;;;;;;;13.66;81.88;99299.69;225368;1282;22631;-72
2023/10/02 23:08:34;;;;;;;10.00;7.80;;;;;;;13.63;81.80;99300.23;225293;1282;139507;-72
2023/10/02 23:13:37;;;;;;;14.20;8.30;;;;;;;13.61;82.09;99298.86;225329;1282;138547;-72
2023/10/02 23:18:39;;;;;;;11.10;7.90;;;;;;;13.58;82.00;99291.08;225318;1282;138678;-73
2023/10/02 23:23:42;;;;;;;11.70;8.10;;;;;;;13.56;82.19;99288.84;225437;1282;139610;-72
2023/10/02 23:28:45;;;;;;;12.10;8.00;;;;;;;13.55;82.05;99284.83;225466;1282;138550;-72
2023/10/02 23:33:50;;;;;;;11.50;7.70;;;;;;;13.52;82.07;99280.40;225501;1282;22539;-71
2023/10/02 23:38:52;;;;;;;11.50;7.80;;;;;;;13.49;82.10;99278.64;225261;1282;138316;-72
2023/10/02 23:43:56;;;;;;;9.80;7.70;;;;;;;13.47;82.13;99276.62;225259;1282;139442;-72
2023/10/02 23:48:59;;;;;;;11.80;8.60;;;;;;;13.46;82.42;99272.16;225464;1282;138575;-71